Time,TemperatureF,DewpointF,PressureIn,WindDirection,WindDirectionDegrees,WindSpeedMPH,WindSpeedGustMPH,Humidity,HourlyPrecipIn,Conditions,Clouds,dailyrainin,SoftwareType,DateUTC
2013-01-24 00:03:00,30.6,18.3,30.55,NE,41,18.0,28.0,60,0.00,,,0.00,meteohub,2013-01-24 06:03:00,
2013-01-24 00:08:00,30.4,18.1,30.56,NE,56,18.0,31.0,60,0.00,,,0.00,meteohub,2013-01-24 06:08:00,
2013-01-24 00:13:00,30.4,18.1,30.55,ENE,72,16.0,31.0,60,0.00,,,0.00,meteohub,2013-01-24 06:13:00,
2013-01-24 00:18:00,30.2,18.3,30.54,ENE,57,11.0,27.0,61,0.00,,,0.00,meteohub,2013-01-24 06:18:00,
2013-01-24 00:23:00,29.8,17.6,30.55,ENE,63,15.0,24.0,60,0.00,,,0.00,meteohub,2013-01-24 06:23:00,
2013-01-24 00:28:00,29.7,17.4,30.54,NE,51,23.0,26.0,60,0.00,,,0.00,meteohub,2013-01-24 06:28:00,
2013-01-24 00:33:00,29.7,17.4,30.54,East,82,17.0,29.0,60,0.00,,,0.00,meteohub,2013-01-24 06:33:00,
2013-01-24 00:38:00,29.5,17.8,30.55,ENE,70,9.0,29.0,61,0.00,,,0.00,meteohub,2013-01-24 06:38:00,
2013-01-24 00:43:00,29.5,17.8,30.54,ENE,59,11.0,29.0,61,0.00,,,0.00,meteohub,2013-01-24 06:43:00,
2013-01-24 00:48:00,29.3,17.6,30.54,ENE,72,11.0,29.0,61,0.00,,,0.00,meteohub,2013-01-24 06:48:00,
2013-01-24 00:53:00,29.1,17.4,30.54,ENE,77,18.0,23.0,61,0.00,,,0.00,meteohub,2013-01-24 06:53:00,
2013-01-24 00:58:00,28.9,17.2,30.54,ENE,57,17.0,23.0,61,0.00,,,0.00,meteohub,2013-01-24 06:58:00,
2013-01-24 01:03:00,28.9,17.2,30.54,NE,45,15.0,23.0,61,0.00,,,0.00,meteohub,2013-01-24 07:03:00,
2013-01-24 01:08:00,28.8,17.1,30.53,ENE,74,14.0,23.0,61,0.00,,,0.00,meteohub,2013-01-24 07:08:00,
2013-01-24 01:13:00,28.6,16.9,30.54,NE,53,15.0,23.0,61,0.00,,,0.00,meteohub,2013-01-24 07:13:00,
2013-01-24 01:18:00,28.6,16.9,30.54,NE,49,16.0,25.0,61,0.00,,,0.00,meteohub,2013-01-24 07:18:00,
2013-01-24 01:23:00,28.4,16.7,30.54,NE,34,21.0,25.0,61,0.00,,,0.00,meteohub,2013-01-24 07:23:00,
2013-01-24 01:28:00,28.2,16.5,30.54,East,86,23.0,25.0,61,0.00,,,0.00,meteohub,2013-01-24 07:28:00,
2013-01-24 01:33:00,28.2,16.5,30.54,ENE,59,14.0,27.0,61,0.00,,,0.00,meteohub,2013-01-24 07:33:00,
2013-01-24 01:39:00,28.0,16.3,30.54,NE,51,16.0,27.0,61,0.00,,,0.00,meteohub,2013-01-24 07:39:00,
2013-01-24 01:44:00,28.0,16.7,30.55,ENE,57,15.0,25.0,62,0.00,,,0.00,meteohub,2013-01-24 07:44:00,
2013-01-24 01:49:00,28.0,16.3,30.55,ENE,63,15.0,25.0,61,0.00,,,0.00,meteohub,2013-01-24 07:49:00,
2013-01-24 01:54:00,27.9,16.2,30.54,NE,51,21.0,25.0,61,0.00,,,0.00,meteohub,2013-01-24 07:54:00,
2013-01-24 01:59:00,27.5,15.8,30.54,NE,54,15.0,26.0,61,0.00,,,0.00,meteohub,2013-01-24 07:59:00,
2013-01-24 02:04:00,27.3,16.0,30.55,ENE,64,18.0,27.0,62,0.00,,,0.00,meteohub,2013-01-24 08:04:00,
2013-01-24 02:09:00,27.1,15.8,30.55,ENE,60,15.0,27.0,62,0.00,,,0.00,meteohub,2013-01-24 08:09:00,
2013-01-24 02:14:00,27.0,15.6,30.55,NE,53,15.0,27.0,62,0.00,,,0.00,meteohub,2013-01-24 08:14:00,
2013-01-24 02:19:00,27.0,16.0,30.55,ENE,57,11.0,30.0,63,0.00,,,0.00,meteohub,2013-01-24 08:19:00,
2013-01-24 02:24:00,26.8,15.8,30.55,ENE,74,17.0,30.0,63,0.00,,,0.00,meteohub,2013-01-24 08:24:00,
2013-01-24 02:29:00,26.8,15.8,30.55,ENE,60,24.0,25.0,63,0.00,,,0.00,meteohub,2013-01-24 08:29:00,
2013-01-24 02:34:00,26.4,15.6,30.55,ENE,65,17.0,25.0,63,0.00,,,0.00,meteohub,2013-01-24 08:34:00,
2013-01-24 02:39:00,26.2,15.4,30.55,ENE,60,26.0,26.0,63,0.00,,,0.00,meteohub,2013-01-24 08:39:00,
2013-01-24 02:44:00,26.2,15.4,30.55,ENE,61,21.0,27.0,63,0.00,,,0.00,meteohub,2013-01-24 08:44:00,
2013-01-24 02:49:00,26.1,15.3,30.56,NNE,32,9.0,27.0,63,0.00,,,0.00,meteohub,2013-01-24 08:49:00,
2013-01-24 02:54:00,25.9,15.1,30.56,ENE,65,20.0,29.0,63,0.00,,,0.00,meteohub,2013-01-24 08:54:00,
2013-01-24 02:59:00,25.7,14.5,30.56,ENE,59,23.0,29.0,62,0.00,,,0.00,meteohub,2013-01-24 08:59:00,
2013-01-24 03:04:00,25.5,14.4,30.56,NE,53,15.0,27.0,62,0.00,,,0.00,meteohub,2013-01-24 09:04:00,
2013-01-24 03:09:00,25.5,14.4,30.56,NE,40,16.0,27.0,62,0.00,,,0.00,meteohub,2013-01-24 09:09:00,
2013-01-24 03:14:00,25.3,14.2,30.56,NE,51,11.0,27.0,62,0.00,,,0.00,meteohub,2013-01-24 09:14:00,
2013-01-24 03:19:00,25.3,14.2,30.56,NE,54,13.0,27.0,62,0.00,,,0.00,meteohub,2013-01-24 09:19:00,
2013-01-24 03:24:00,25.2,14.0,30.56,ENE,68,15.0,27.0,62,0.00,,,0.00,meteohub,2013-01-24 09:24:00,
2013-01-24 03:29:00,25.0,14.2,30.56,ENE,67,18.0,23.0,63,0.00,,,0.00,meteohub,2013-01-24 09:29:00,
2013-01-24 03:34:00,24.8,14.0,30.56,ENE,57,16.0,22.0,63,0.00,,,0.00,meteohub,2013-01-24 09:34:00,
2013-01-24 03:39:00,24.6,14.2,30.55,NE,51,13.0,22.0,64,0.00,,,0.00,meteohub,2013-01-24 09:39:00,
2013-01-24 03:44:00,24.6,14.2,30.55,ENE,67,12.0,23.0,64,0.00,,,0.00,meteohub,2013-01-24 09:44:00,
2013-01-24 03:49:00,24.4,14.0,30.55,ENE,75,11.0,23.0,64,0.00,,,0.00,meteohub,2013-01-24 09:49:00,
2013-01-24 03:54:00,24.3,14.2,30.54,ENE,68,11.0,22.0,65,0.00,,,0.00,meteohub,2013-01-24 09:54:00,
2013-01-24 03:59:00,24.3,14.2,30.54,NE,53,21.0,23.0,65,0.00,,,0.00,meteohub,2013-01-24 09:59:00,
2013-01-24 04:04:00,24.1,14.0,30.54,East,93,9.0,23.0,65,0.00,,,0.00,meteohub,2013-01-24 10:04:00,
2013-01-24 04:09:00,24.1,14.4,30.54,NE,56,9.0,28.0,66,0.00,,,0.00,meteohub,2013-01-24 10:09:00,
2013-01-24 04:14:00,23.9,14.2,30.55,ENE,70,10.0,28.0,66,0.00,,,0.00,meteohub,2013-01-24 10:14:00,
2013-01-24 04:19:00,23.7,14.0,30.55,NE,40,11.0,28.0,66,0.00,,,0.00,meteohub,2013-01-24 10:19:00,
2013-01-24 04:25:00,23.7,14.0,30.55,ENE,58,22.0,24.0,66,0.00,,,0.00,meteohub,2013-01-24 10:25:00,
2013-01-24 04:30:00,23.5,13.8,30.55,ENE,65,15.0,27.0,66,0.00,,,0.00,meteohub,2013-01-24 10:30:00,
2013-01-24 04:35:00,23.5,13.8,30.55,ENE,57,20.0,27.0,66,0.00,,,0.00,meteohub,2013-01-24 10:35:00,
2013-01-24 04:40:00,23.4,13.6,30.55,ENE,67,17.0,27.0,66,0.00,,,0.00,meteohub,2013-01-24 10:40:00,
2013-01-24 04:45:00,23.4,13.6,30.54,ENE,68,15.0,25.0,66,0.00,,,0.00,meteohub,2013-01-24 10:45:00,
2013-01-24 04:50:00,23.4,13.6,30.54,ENE,68,19.0,25.0,66,0.00,,,0.00,meteohub,2013-01-24 10:50:00,
2013-01-24 04:55:00,23.2,13.8,30.55,ENE,60,9.0,29.0,67,0.00,,,0.00,meteohub,2013-01-24 10:55:00,
2013-01-24 05:00:00,23.2,13.8,30.56,ENE,57,9.0,29.0,67,0.00,,,0.00,meteohub,2013-01-24 11:00:00,
2013-01-24 05:05:00,22.8,13.5,30.56,NE,47,14.0,29.0,67,0.00,,,0.00,meteohub,2013-01-24 11:05:00,
2013-01-24 05:10:00,22.8,13.5,30.56,ENE,68,13.0,24.0,67,0.00,,,0.00,meteohub,2013-01-24 11:10:00,
2013-01-24 05:15:00,22.6,13.3,30.56,ENE,67,21.0,24.0,67,0.00,,,0.00,meteohub,2013-01-24 11:15:00,
2013-01-24 05:20:00,22.6,13.6,30.56,East,81,9.0,28.0,68,0.00,,,0.00,meteohub,2013-01-24 11:20:00,
2013-01-24 05:25:00,22.5,13.5,30.56,ENE,57,10.0,28.0,68,0.00,,,0.00,meteohub,2013-01-24 11:25:00,
2013-01-24 05:30:00,22.5,13.8,30.56,ENE,72,15.0,28.0,69,0.00,,,0.00,meteohub,2013-01-24 11:30:00,
2013-01-24 05:35:00,22.3,13.6,30.56,NE,53,11.0,23.0,69,0.00,,,0.00,meteohub,2013-01-24 11:35:00,
2013-01-24 05:40:00,22.1,13.5,30.56,ENE,68,14.0,22.0,69,0.00,,,0.00,meteohub,2013-01-24 11:40:00,
2013-01-24 05:45:00,21.9,13.3,30.55,ENE,71,19.0,21.0,69,0.00,,,0.00,meteohub,2013-01-24 11:45:00,
2013-01-24 05:50:00,21.9,13.6,30.55,NE,56,24.0,24.0,70,0.00,,,0.00,meteohub,2013-01-24 11:50:00,
2013-01-24 05:55:00,21.7,13.5,30.54,ENE,63,18.0,23.0,70,0.00,,,0.00,meteohub,2013-01-24 11:55:00,
2013-01-24 06:00:00,21.7,13.5,30.53,ENE,68,17.0,23.0,70,0.00,,,0.00,meteohub,2013-01-24 12:00:00,
2013-01-24 06:05:00,21.7,13.5,30.54,ENE,63,15.0,25.0,70,0.00,,,0.00,meteohub,2013-01-24 12:05:00,
2013-01-24 06:10:00,21.6,13.3,30.54,ENE,64,14.0,25.0,70,0.00,,,0.00,meteohub,2013-01-24 12:10:00,
2013-01-24 06:15:00,21.6,13.3,30.55,ENE,59,16.0,25.0,70,0.00,,,0.00,meteohub,2013-01-24 12:15:00,
2013-01-24 06:20:00,21.6,13.3,30.55,ENE,65,11.0,25.0,70,0.00,,,0.00,meteohub,2013-01-24 12:20:00,
2013-01-24 06:25:00,21.6,13.6,30.54,East,79,9.0,22.0,71,0.00,,,0.00,meteohub,2013-01-24 12:25:00,
2013-01-24 06:30:00,21.4,13.1,30.55,ENE,64,13.0,22.0,70,0.00,,,0.00,meteohub,2013-01-24 12:30:00,
2013-01-24 06:36:00,21.4,13.5,30.55,ENE,72,13.0,20.0,71,0.00,,,0.00,meteohub,2013-01-24 12:36:00,
2013-01-24 06:40:00,21.4,13.5,30.54,ENE,75,11.0,20.0,71,0.00,,,0.00,meteohub,2013-01-24 12:40:00,
2013-01-24 06:45:00,21.2,13.3,30.54,ENE,64,14.0,21.0,71,0.00,,,0.00,meteohub,2013-01-24 12:45:00,
2013-01-24 06:50:00,21.2,13.3,30.55,ENE,70,17.0,22.0,71,0.00,,,0.00,meteohub,2013-01-24 12:50:00,
2013-01-24 06:56:00,21.2,13.3,30.55,ENE,59,11.0,22.0,71,0.00,,,0.00,meteohub,2013-01-24 12:56:00,
2013-01-24 07:01:00,21.2,13.3,30.55,ENE,68,16.0,22.0,71,0.00,,,0.00,meteohub,2013-01-24 13:01:00,
2013-01-24 07:06:00,21.0,12.7,30.55,NE,54,17.0,22.0,70,0.00,,,0.00,meteohub,2013-01-24 13:06:00,
2013-01-24 07:11:00,21.0,12.7,30.55,NE,53,7.0,20.0,70,0.00,,,0.00,meteohub,2013-01-24 13:11:00,
2013-01-24 07:16:00,21.0,12.7,30.56,ENE,58,11.0,20.0,70,0.00,,,0.00,meteohub,2013-01-24 13:16:00,
2013-01-24 07:21:00,21.0,12.7,30.56,ENE,60,11.0,21.0,70,0.00,,,0.00,meteohub,2013-01-24 13:21:00,
2013-01-24 07:26:00,21.0,12.7,30.56,NE,47,10.0,21.0,70,0.00,,,0.00,meteohub,2013-01-24 13:26:00,
2013-01-24 07:31:00,21.0,12.7,30.56,NE,56,11.0,21.0,70,0.00,,,0.00,meteohub,2013-01-24 13:31:00,
2013-01-24 07:36:00,21.0,12.7,30.56,NNE,32,12.0,19.0,70,0.00,,,0.00,meteohub,2013-01-24 13:36:00,
2013-01-24 07:41:00,20.8,12.9,30.56,ENE,57,15.0,19.0,71,0.00,,,0.00,meteohub,2013-01-24 13:41:00,
2013-01-24 07:46:00,20.7,12.7,30.56,East,79,10.0,18.0,71,0.00,,,0.00,meteohub,2013-01-24 13:46:00,
2013-01-24 07:51:00,20.5,12.6,30.56,NE,51,11.0,19.0,71,0.00,,,0.00,meteohub,2013-01-24 13:51:00,
2013-01-24 07:56:00,20.3,12.4,30.55,NE,56,16.0,19.0,71,0.00,,,0.00,meteohub,2013-01-24 13:56:00,
2013-01-24 08:01:00,20.1,12.6,30.56,NE,49,10.0,21.0,72,0.00,,,0.00,meteohub,2013-01-24 14:01:00,
2013-01-24 08:06:00,19.9,12.4,30.56,NE,56,8.0,22.0,72,0.00,,,0.00,meteohub,2013-01-24 14:06:00,
2013-01-24 08:11:00,19.8,12.2,30.56,ENE,77,15.0,22.0,72,0.00,,,0.00,meteohub,2013-01-24 14:11:00,
2013-01-24 08:16:00,19.8,12.6,30.55,NE,54,9.0,22.0,73,0.00,,,0.00,meteohub,2013-01-24 14:16:00,
2013-01-24 08:21:00,19.6,12.4,30.56,ENE,67,17.0,20.0,73,0.00,,,0.00,meteohub,2013-01-24 14:21:00,
2013-01-24 08:26:00,19.8,12.2,30.56,ENE,65,12.0,20.0,72,0.00,,,0.00,meteohub,2013-01-24 14:26:00,
2013-01-24 08:31:00,19.6,12.4,30.55,East,94,8.0,24.0,73,0.00,,,0.00,meteohub,2013-01-24 14:31:00,
2013-01-24 08:36:00,19.8,12.2,30.56,NE,40,9.0,24.0,72,0.00,,,0.00,meteohub,2013-01-24 14:36:00,
2013-01-24 08:41:00,19.8,12.2,30.55,ENE,71,12.0,24.0,72,0.00,,,0.00,meteohub,2013-01-24 14:41:00,
2013-01-24 08:46:00,19.8,11.8,30.55,ENE,67,14.0,22.0,71,0.00,,,0.00,meteohub,2013-01-24 14:46:00,
2013-01-24 08:51:00,19.8,11.8,30.56,ENE,60,10.0,22.0,71,0.00,,,0.00,meteohub,2013-01-24 14:51:00,
2013-01-24 08:56:00,19.9,12.0,30.57,ENE,59,18.0,22.0,71,0.00,,,0.00,meteohub,2013-01-24 14:56:00,
2013-01-24 09:01:00,19.9,12.0,30.57,ENE,72,13.0,22.0,71,0.00,,,0.00,meteohub,2013-01-24 15:01:00,
2013-01-24 09:06:00,20.1,11.8,30.57,ENE,63,9.0,22.0,70,0.00,,,0.00,meteohub,2013-01-24 15:06:00,
2013-01-24 09:11:00,20.1,11.7,30.57,ENE,67,19.0,22.0,69,0.00,,,0.00,meteohub,2013-01-24 15:11:00,
2013-01-24 09:16:00,20.1,11.7,30.58,NE,44,12.0,22.0,69,0.00,,,0.00,meteohub,2013-01-24 15:16:00,
2013-01-24 09:21:00,20.1,11.3,30.57,ENE,60,19.0,22.0,68,0.00,,,0.00,meteohub,2013-01-24 15:21:00,
2013-01-24 09:26:00,19.9,11.1,30.57,ENE,60,13.0,22.0,68,0.00,,,0.00,meteohub,2013-01-24 15:26:00,
2013-01-24 09:31:00,20.1,10.9,30.56,ENE,68,12.0,22.0,67,0.00,,,0.00,meteohub,2013-01-24 15:31:00,
2013-01-24 09:36:00,20.1,10.6,30.57,ENE,58,14.0,23.0,66,0.00,,,0.00,meteohub,2013-01-24 15:36:00,
2013-01-24 09:41:00,20.3,10.8,30.57,ENE,68,13.0,23.0,66,0.00,,,0.00,meteohub,2013-01-24 15:41:00,
2013-01-24 09:46:00,20.7,10.4,30.56,NE,51,16.0,23.0,64,0.00,,,0.00,meteohub,2013-01-24 15:46:00,
2013-01-24 09:51:00,20.7,10.4,30.56,ENE,57,14.0,20.0,64,0.00,,,0.00,meteohub,2013-01-24 15:51:00,
2013-01-24 09:56:00,20.7,10.4,30.57,ENE,72,9.0,21.0,64,0.00,,,0.00,meteohub,2013-01-24 15:56:00,
2013-01-24 10:01:00,20.8,10.2,30.57,ENE,71,16.0,21.0,63,0.00,,,0.00,meteohub,2013-01-24 16:01:00,
2013-01-24 10:06:00,20.8,10.2,30.57,NE,54,9.0,21.0,63,0.00,,,0.00,meteohub,2013-01-24 16:06:00,
2013-01-24 10:11:00,21.0,10.0,30.56,ENE,65,9.0,19.0,62,0.00,,,0.00,meteohub,2013-01-24 16:11:00,
2013-01-24 10:16:00,21.2,10.2,30.57,NE,56,11.0,19.0,62,0.00,,,0.00,meteohub,2013-01-24 16:16:00,
2013-01-24 10:21:00,21.2,9.9,30.57,NE,47,13.0,19.0,61,0.00,,,0.00,meteohub,2013-01-24 16:21:00,
2013-01-24 10:26:00,21.2,9.9,30.57,ENE,77,14.0,19.0,61,0.00,,,0.00,meteohub,2013-01-24 16:26:00,
2013-01-24 10:31:00,21.2,10.2,30.57,ENE,72,13.0,20.0,62,0.00,,,0.00,meteohub,2013-01-24 16:31:00,
2013-01-24 10:36:00,21.4,10.0,30.57,ENE,57,14.0,20.0,61,0.00,,,0.00,meteohub,2013-01-24 16:36:00,
2013-01-24 10:41:00,21.4,10.4,30.57,ENE,65,15.0,20.0,62,0.00,,,0.00,meteohub,2013-01-24 16:41:00,
2013-01-24 10:46:00,21.6,10.2,30.57,NE,54,16.0,19.0,61,0.00,,,0.00,meteohub,2013-01-24 16:46:00,
2013-01-24 10:51:00,21.6,10.2,30.58,NE,44,13.0,19.0,61,0.00,,,0.00,meteohub,2013-01-24 16:51:00,
2013-01-24 10:56:00,21.9,10.2,30.57,NE,44,12.0,20.0,60,0.00,,,0.00,meteohub,2013-01-24 16:56:00,
2013-01-24 11:02:00,21.9,10.2,30.58,ENE,67,11.0,21.0,60,0.00,,,0.00,meteohub,2013-01-24 17:02:00,
2013-01-24 11:07:00,21.9,10.2,30.58,NE,47,13.0,21.0,60,0.00,,,0.00,meteohub,2013-01-24 17:07:00,
2013-01-24 11:12:00,21.9,10.2,30.58,ENE,63,15.0,20.0,60,0.00,,,0.00,meteohub,2013-01-24 17:12:00,
2013-01-24 11:17:00,21.9,10.2,30.58,NE,45,18.0,23.0,60,0.00,,,0.00,meteohub,2013-01-24 17:17:00,
2013-01-24 11:22:00,22.1,10.4,30.58,ENE,60,20.0,23.0,60,0.00,,,0.00,meteohub,2013-01-24 17:22:00,
2013-01-24 11:27:00,22.5,10.2,30.58,NE,51,11.0,23.0,59,0.00,,,0.00,meteohub,2013-01-24 17:27:00,
2013-01-24 11:32:00,22.1,10.0,30.57,NE,51,23.0,23.0,59,0.00,,,0.00,meteohub,2013-01-24 17:32:00,
2013-01-24 11:37:00,21.9,10.2,30.57,NE,51,11.0,23.0,60,0.00,,,0.00,meteohub,2013-01-24 17:37:00,
2013-01-24 11:42:00,22.1,10.4,30.57,ENE,72,16.0,23.0,60,0.00,,,0.00,meteohub,2013-01-24 17:42:00,
2013-01-24 11:47:00,22.3,10.6,30.57,NE,54,14.0,23.0,60,0.00,,,0.00,meteohub,2013-01-24 17:47:00,
2013-01-24 11:52:00,22.5,10.8,30.56,ENE,65,12.0,21.0,60,0.00,,,0.00,meteohub,2013-01-24 17:52:00,
2013-01-24 11:57:00,22.8,10.6,30.55,ENE,77,14.0,21.0,59,0.00,,,0.00,meteohub,2013-01-24 17:57:00,
2013-01-24 12:02:00,23.2,10.6,30.54,NE,51,14.0,17.0,58,0.00,,,0.00,meteohub,2013-01-24 18:02:00,
2013-01-24 12:07:00,23.2,10.2,30.54,ENE,59,17.0,19.0,57,0.00,,,0.00,meteohub,2013-01-24 18:07:00,
2013-01-24 12:12:00,23.4,10.8,30.53,ENE,65,13.0,21.0,58,0.00,,,0.00,meteohub,2013-01-24 18:12:00,
2013-01-24 12:17:00,23.4,10.4,30.52,ENE,68,12.0,21.0,57,0.00,,,0.00,meteohub,2013-01-24 18:17:00,
2013-01-24 12:22:00,23.7,10.8,30.53,ENE,64,16.0,21.0,57,0.00,,,0.00,meteohub,2013-01-24 18:22:00,
2013-01-24 12:27:00,24.3,11.3,30.52,NE,53,15.0,21.0,57,0.00,,,0.00,meteohub,2013-01-24 18:27:00,
2013-01-24 12:32:00,24.1,10.2,30.52,ENE,68,19.0,22.0,55,0.00,,,0.00,meteohub,2013-01-24 18:32:00,
2013-01-24 12:37:00,24.1,10.6,30.51,ENE,63,10.0,22.0,56,0.00,,,0.00,meteohub,2013-01-24 18:37:00,
2013-01-24 12:42:00,24.4,10.9,30.51,ENE,63,9.0,22.0,56,0.00,,,0.00,meteohub,2013-01-24 18:42:00,
2013-01-24 12:47:00,24.8,10.9,30.50,ENE,72,11.0,19.0,55,0.00,,,0.00,meteohub,2013-01-24 18:47:00,
2013-01-24 12:52:00,25.2,10.9,30.49,NE,54,14.0,15.0,54,0.00,,,0.00,meteohub,2013-01-24 18:52:00,
2013-01-24 12:57:00,25.3,10.6,30.49,ENE,77,9.0,18.0,53,0.00,,,0.00,meteohub,2013-01-24 18:57:00,
2013-01-24 13:02:00,25.5,10.4,30.48,ESE,106,8.0,18.0,52,0.00,,,0.00,meteohub,2013-01-24 19:02:00,
2013-01-24 13:07:00,25.9,9.9,30.48,ESE,102,10.0,18.0,50,0.00,,,0.00,meteohub,2013-01-24 19:07:00,
2013-01-24 13:12:00,25.9,9.3,30.48,East,81,11.0,16.0,49,0.00,,,0.00,meteohub,2013-01-24 19:12:00,
2013-01-24 13:17:00,26.1,9.5,30.48,East,79,14.0,16.0,49,0.00,,,0.00,meteohub,2013-01-24 19:17:00,
2013-01-24 13:22:00,26.2,10.2,30.48,East,86,7.0,16.0,50,0.00,,,0.00,meteohub,2013-01-24 19:22:00,
2013-01-24 13:27:00,26.4,9.9,30.48,ENE,68,8.0,16.0,49,0.00,,,0.00,meteohub,2013-01-24 19:27:00,
2013-01-24 13:32:00,26.4,9.3,30.48,ESE,118,6.0,16.0,48,0.00,,,0.00,meteohub,2013-01-24 19:32:00,
2013-01-24 13:37:00,26.4,9.3,30.48,ENE,63,7.0,15.0,48,0.00,,,0.00,meteohub,2013-01-24 19:37:00,
2013-01-24 13:42:00,26.2,9.1,30.47,East,99,7.0,14.0,48,0.00,,,0.00,meteohub,2013-01-24 19:42:00,
2013-01-24 13:47:00,26.4,9.9,30.46,ENE,78,6.0,10.0,49,0.00,,,0.00,meteohub,2013-01-24 19:47:00,
2013-01-24 13:52:00,26.6,9.5,30.47,ENE,75,9.0,11.0,48,0.00,,,0.00,meteohub,2013-01-24 19:52:00,
2013-01-24 13:57:00,26.8,10.2,30.46,East,92,10.0,12.0,49,0.00,,,0.00,meteohub,2013-01-24 19:57:00,
2013-01-24 14:02:00,26.6,9.5,30.46,ESE,113,8.0,12.0,48,0.00,,,0.00,meteohub,2013-01-24 20:02:00,
2013-01-24 14:07:00,26.8,9.7,30.46,ENE,77,8.0,12.0,48,0.00,,,0.00,meteohub,2013-01-24 20:07:00,
2013-01-24 14:12:00,26.6,9.5,30.45,ENE,72,5.0,12.0,48,0.00,,,0.00,meteohub,2013-01-24 20:12:00,
2013-01-24 14:17:00,26.8,9.7,30.45,East,87,7.0,10.0,48,0.00,,,0.00,meteohub,2013-01-24 20:17:00,
2013-01-24 14:22:00,26.8,9.7,30.45,ENE,63,10.0,10.0,48,0.00,,,0.00,meteohub,2013-01-24 20:22:00,
2013-01-24 14:27:00,27.0,9.9,30.45,ENE,72,9.0,13.0,48,0.00,,,0.00,meteohub,2013-01-24 20:27:00,
2013-01-24 14:32:00,26.8,9.7,30.44,East,84,3.0,13.0,48,0.00,,,0.00,meteohub,2013-01-24 20:32:00,
2013-01-24 14:37:00,27.1,10.6,30.43,NE,56,7.0,13.0,49,0.00,,,0.00,meteohub,2013-01-24 20:37:00,
2013-01-24 14:42:00,27.3,10.2,30.43,ENE,77,9.0,11.0,48,0.00,,,0.00,meteohub,2013-01-24 20:42:00,
2013-01-24 14:47:00,27.1,10.9,30.42,ENE,70,7.0,12.0,50,0.00,,,0.00,meteohub,2013-01-24 20:47:00,
2013-01-24 14:52:00,27.1,10.6,30.42,ENE,71,6.0,16.0,49,0.00,,,0.00,meteohub,2013-01-24 20:52:00,
2013-01-24 14:56:00,27.1,11.5,30.43,ENE,70,6.0,16.0,51,0.00,,,0.00,meteohub,2013-01-24 20:56:00,
2013-01-24 15:02:00,27.1,10.6,30.43,East,88,6.0,16.0,49,0.00,,,0.00,meteohub,2013-01-24 21:02:00,
2013-01-24 15:07:00,27.1,10.9,30.43,ENE,65,6.0,11.0,50,0.00,,,0.00,meteohub,2013-01-24 21:07:00,
2013-01-24 15:12:00,27.1,10.6,30.43,ENE,70,6.0,9.0,49,0.00,,,0.00,meteohub,2013-01-24 21:12:00,
2013-01-24 15:17:00,27.1,10.6,30.43,ENE,75,7.0,11.0,49,0.00,,,0.00,meteohub,2013-01-24 21:17:00,
2013-01-24 15:22:00,27.0,11.7,30.42,ENE,58,8.0,14.0,52,0.00,,,0.00,meteohub,2013-01-24 21:22:00,
2013-01-24 15:27:00,27.1,11.8,30.42,East,99,6.0,14.0,52,0.00,,,0.00,meteohub,2013-01-24 21:27:00,
2013-01-24 15:32:00,27.1,11.8,30.42,ESE,117,4.0,14.0,52,0.00,,,0.00,meteohub,2013-01-24 21:32:00,
2013-01-24 15:37:00,27.1,12.2,30.43,East,91,4.0,10.0,53,0.00,,,0.00,meteohub,2013-01-24 21:37:00,
2013-01-24 15:42:00,27.0,12.6,30.43,ESE,103,6.0,11.0,54,0.00,,,0.00,meteohub,2013-01-24 21:42:00,
2013-01-24 15:47:00,27.0,13.3,30.43,ENE,70,7.0,11.0,56,0.00,,,0.00,meteohub,2013-01-24 21:47:00,
2013-01-24 15:52:00,27.1,13.5,30.43,ENE,75,4.0,11.0,56,0.00,,,0.00,meteohub,2013-01-24 21:52:00,
2013-01-24 15:57:00,27.0,12.6,30.43,NE,56,3.0,11.0,54,0.00,,,0.00,meteohub,2013-01-24 21:57:00,
2013-01-24 16:02:00,27.0,12.0,30.42,East,81,6.0,11.0,53,0.00,,,0.00,meteohub,2013-01-24 22:02:00,
2013-01-24 16:07:00,27.1,12.2,30.42,ESE,103,7.0,9.0,53,0.00,,,0.00,meteohub,2013-01-24 22:07:00,
2013-01-24 16:12:00,27.0,12.6,30.41,ESE,103,6.0,10.0,54,0.00,,,0.00,meteohub,2013-01-24 22:12:00,
2013-01-24 16:17:00,27.0,12.9,30.41,East,99,10.0,10.0,55,0.00,,,0.00,meteohub,2013-01-24 22:17:00,
2013-01-24 16:22:00,27.0,12.6,30.40,East,85,8.0,11.0,54,0.00,,,0.00,meteohub,2013-01-24 22:22:00,
2013-01-24 16:27:00,27.0,12.6,30.40,SE,134,6.0,17.0,54,0.00,,,0.00,meteohub,2013-01-24 22:27:00,
2013-01-24 16:32:00,26.8,13.1,30.40,East,101,8.0,17.0,56,0.00,,,0.00,meteohub,2013-01-24 22:32:00,
2013-01-24 16:37:00,26.4,13.6,30.39,ESE,103,7.0,17.0,58,0.00,,,0.00,meteohub,2013-01-24 22:37:00,
2013-01-24 16:42:00,26.4,14.7,30.38,East,95,6.0,12.0,61,0.00,,,0.00,meteohub,2013-01-24 22:42:00,
2013-01-24 16:47:00,26.2,15.4,30.38,ESE,103,9.0,12.0,63,0.00,,,0.00,meteohub,2013-01-24 22:47:00,
2013-01-24 16:52:00,26.1,15.3,30.37,East,95,10.0,15.0,63,0.00,,,0.00,meteohub,2013-01-24 22:52:00,
2013-01-24 16:57:00,25.9,15.8,30.34,NNE,32,10.0,17.0,65,0.00,,,0.00,meteohub,2013-01-24 22:57:00,
2013-01-24 17:02:00,25.3,15.6,30.34,East,94,12.0,21.0,66,0.00,,,0.00,meteohub,2013-01-24 23:02:00,
2013-01-24 17:07:00,25.3,15.6,30.35,East,90,8.0,21.0,66,0.00,,,0.00,meteohub,2013-01-24 23:07:00,
2013-01-24 17:12:00,25.3,16.0,30.37,ENE,75,11.0,21.0,67,0.00,,,0.00,meteohub,2013-01-24 23:12:00,
2013-01-24 17:17:00,25.2,16.3,30.38,East,86,10.0,19.0,69,0.00,,,0.00,meteohub,2013-01-24 23:17:00,
2013-01-24 17:22:00,25.2,16.3,30.38,ENE,77,4.0,16.0,69,0.00,,,0.00,meteohub,2013-01-24 23:22:00,
2013-01-24 17:27:00,25.2,17.4,30.39,East,94,6.0,16.0,72,0.00,,,0.00,meteohub,2013-01-24 23:27:00,
2013-01-24 17:32:00,25.0,18.0,30.39,East,92,8.0,11.0,74,0.00,,,0.00,meteohub,2013-01-24 23:32:00,
2013-01-24 17:37:00,24.8,18.0,30.40,ESE,105,6.0,11.0,75,0.00,,,0.00,meteohub,2013-01-24 23:37:00,
2013-01-24 17:42:00,24.6,18.1,30.41,East,95,5.0,11.0,76,0.00,,,0.00,meteohub,2013-01-24 23:42:00,
2013-01-24 17:47:00,24.4,18.3,30.41,ESE,118,5.0,10.0,77,0.00,,,0.00,meteohub,2013-01-24 23:47:00,
2013-01-24 17:52:00,24.4,18.3,30.41,ESE,117,4.0,8.0,77,0.00,,,0.00,meteohub,2013-01-24 23:52:00,
2013-01-24 17:57:00,24.4,18.9,30.41,East,97,7.0,8.0,79,0.00,,,0.00,meteohub,2013-01-24 23:57:00,
2013-01-24 18:02:00,24.4,18.9,30.41,ENE,77,6.0,7.0,79,0.00,,,0.00,meteohub,2013-01-25 00:02:00,
2013-01-24 18:07:00,24.3,19.2,30.41,ESE,103,6.0,7.0,81,0.00,,,0.00,meteohub,2013-01-25 00:07:00,
2013-01-24 18:12:00,24.3,19.2,30.42,ESE,118,4.0,7.0,81,0.00,,,0.00,meteohub,2013-01-25 00:12:00,
2013-01-24 18:17:00,24.1,19.4,30.41,East,100,5.0,7.0,82,0.00,,,0.00,meteohub,2013-01-25 00:17:00,
2013-01-24 18:22:00,24.1,19.8,30.41,East,92,4.0,7.0,83,0.00,,,0.00,meteohub,2013-01-25 00:22:00,
2013-01-24 18:27:00,23.9,20.1,30.41,ESE,103,3.0,7.0,85,0.00,,,0.00,meteohub,2013-01-25 00:27:00,
2013-01-24 18:32:00,23.9,19.8,30.41,ENE,70,5.0,6.0,84,0.00,,,0.00,meteohub,2013-01-25 00:32:00,
2013-01-24 18:37:00,23.9,19.8,30.41,ENE,68,3.0,7.0,84,0.00,,,0.00,meteohub,2013-01-25 00:37:00,
2013-01-24 18:42:00,23.9,19.6,30.42,East,89,4.0,7.0,83,0.00,,,0.00,meteohub,2013-01-25 00:42:00,
2013-01-24 18:47:00,24.1,19.8,30.42,ENE,75,2.0,7.0,83,0.00,,,0.00,meteohub,2013-01-25 00:47:00,
2013-01-24 18:52:00,24.1,19.4,30.42,East,99,3.0,5.0,82,0.00,,,0.00,meteohub,2013-01-25 00:52:00,
2013-01-24 18:57:00,24.1,19.0,30.42,East,99,2.0,5.0,81,0.00,,,0.00,meteohub,2013-01-25 00:57:00,
2013-01-24 19:02:00,24.3,19.2,30.40,East,91,5.0,5.0,81,0.00,,,0.00,meteohub,2013-01-25 01:02:00,
2013-01-24 19:07:00,24.3,19.0,30.40,ESE,102,6.0,9.0,80,0.00,,,0.00,meteohub,2013-01-25 01:07:00,
2013-01-24 19:12:00,24.3,19.0,30.40,ESE,111,3.0,9.0,80,0.00,,,0.00,meteohub,2013-01-25 01:12:00,
2013-01-24 19:17:00,24.4,19.4,30.40,East,99,4.0,9.0,81,0.00,,,0.00,meteohub,2013-01-25 01:17:00,
2013-01-24 19:22:00,24.3,19.6,30.40,ESE,103,6.0,9.0,82,0.00,,,0.00,meteohub,2013-01-25 01:22:00,
2013-01-24 19:27:00,24.3,19.8,30.40,East,99,4.0,9.0,83,0.00,,,0.00,meteohub,2013-01-25 01:27:00,
2013-01-24 19:32:00,24.3,20.1,30.40,East,89,3.0,8.0,84,0.00,,,0.00,meteohub,2013-01-25 01:32:00,
2013-01-24 19:37:00,24.3,20.1,30.42,SSE,162,0.0,6.0,84,0.00,,,0.00,meteohub,2013-01-25 01:37:00,
2013-01-24 19:42:00,24.1,20.3,30.42,ESE,114,2.0,6.0,85,0.00,,,0.00,meteohub,2013-01-25 01:42:00,
2013-01-24 19:47:00,24.1,20.3,30.43,SW,214,0.0,6.0,85,0.00,,,0.00,meteohub,2013-01-25 01:47:00,
2013-01-24 19:52:00,24.1,20.5,30.43,SSW,208,1.0,4.0,86,0.00,,,0.00,meteohub,2013-01-25 01:52:00,
2013-01-24 19:57:00,24.1,20.5,30.43,SW,232,0.0,3.0,86,0.00,,,0.00,meteohub,2013-01-25 01:57:00,
2013-01-24 20:02:00,23.9,20.7,30.43,ESE,117,1.0,3.0,87,0.00,,,0.00,meteohub,2013-01-25 02:02:00,
2013-01-24 20:07:00,24.1,20.8,30.43,ESE,112,0.0,2.0,87,0.00,,,0.00,meteohub,2013-01-25 02:07:00,
2013-01-24 20:12:00,23.9,20.7,30.43,SW,219,0.0,2.0,87,0.00,,,0.00,meteohub,2013-01-25 02:12:00,
2013-01-24 20:17:00,23.9,20.7,30.42,SW,218,0.0,2.0,87,0.00,,,0.00,meteohub,2013-01-25 02:17:00,
2013-01-24 20:22:00,23.7,20.5,30.42,SSE,160,0.0,1.0,87,0.00,,,0.00,meteohub,2013-01-25 02:22:00,
2013-01-24 20:27:00,23.7,20.7,30.41,SE,143,0.0,1.0,88,0.00,,,0.00,meteohub,2013-01-25 02:27:00,
2013-01-24 20:31:00,23.7,20.7,30.42,SSE,149,1.0,1.0,88,0.00,,,0.00,meteohub,2013-01-25 02:31:00,
2013-01-24 20:36:00,23.7,20.7,30.42,East,93,0.0,1.0,88,0.00,,,0.00,meteohub,2013-01-25 02:36:00,
2013-01-24 20:41:00,23.7,21.0,30.42,ESE,109,0.0,1.0,89,0.00,,,0.00,meteohub,2013-01-25 02:41:00,
2013-01-24 20:46:00,23.7,21.0,30.41,ESE,108,0.0,1.0,89,0.00,,,0.00,meteohub,2013-01-25 02:46:00,
2013-01-24 20:52:00,23.7,21.0,30.41,NE,54,1.0,1.0,89,0.00,,,0.00,meteohub,2013-01-25 02:52:00,
2013-01-24 20:57:00,23.9,21.4,30.41,NE,51,1.0,2.0,90,0.00,,,0.00,meteohub,2013-01-25 02:57:00,
2013-01-24 21:02:00,23.7,21.2,30.42,NE,44,0.0,2.0,90,0.00,,,0.00,meteohub,2013-01-25 03:02:00,
2013-01-24 21:07:00,23.7,21.2,30.42,North,351,0.0,2.0,90,0.00,,,0.00,meteohub,2013-01-25 03:07:00,
2013-01-24 21:12:00,23.7,21.2,30.43,WNW,297,1.0,2.0,90,0.00,,,0.00,meteohub,2013-01-25 03:12:00,
2013-01-24 21:17:00,23.9,21.4,30.42,WSW,249,0.0,2.0,90,0.00,,,0.00,meteohub,2013-01-25 03:17:00,
2013-01-24 21:22:00,23.9,21.7,30.42,WNW,285,1.0,2.0,91,0.00,,,0.00,meteohub,2013-01-25 03:22:00,
2013-01-24 21:27:00,23.9,21.7,30.42,WSW,250,2.0,2.0,91,0.00,,,0.00,meteohub,2013-01-25 03:27:00,
2013-01-24 21:32:00,23.9,21.7,30.42,WSW,253,2.0,3.0,91,0.00,,,0.00,meteohub,2013-01-25 03:32:00,
2013-01-24 21:37:00,24.1,21.9,30.42,WSW,257,2.0,3.0,91,0.00,,,0.00,meteohub,2013-01-25 03:37:00,
2013-01-24 21:42:00,24.1,21.9,30.42,WSW,257,1.0,3.0,91,0.00,,,0.00,meteohub,2013-01-25 03:42:00,
2013-01-24 21:47:00,24.1,22.1,30.42,SW,233,3.0,3.0,92,0.00,,,0.00,meteohub,2013-01-25 03:47:00,
2013-01-24 21:52:00,23.9,21.9,30.43,WSW,255,4.0,5.0,92,0.00,,,0.00,meteohub,2013-01-25 03:52:00,
2013-01-24 21:57:00,23.7,21.7,30.42,WSW,240,4.0,6.0,92,0.00,,,0.00,meteohub,2013-01-25 03:57:00,
2013-01-24 22:02:00,23.7,21.7,30.42,WSW,241,6.0,6.0,92,0.00,,,0.00,meteohub,2013-01-25 04:02:00,
2013-01-24 22:07:00,23.7,21.7,30.41,WSW,255,4.0,6.0,92,0.00,,,0.00,meteohub,2013-01-25 04:07:00,
2013-01-24 22:12:00,23.7,21.7,30.41,WSW,257,1.0,6.0,92,0.00,,,0.00,meteohub,2013-01-25 04:12:00,
2013-01-24 22:17:00,23.7,21.9,30.41,SW,219,3.0,6.0,93,0.00,,,0.00,meteohub,2013-01-25 04:17:00,
2013-01-24 22:22:00,23.7,21.9,30.41,SW,228,2.0,6.0,93,0.00,,,0.00,meteohub,2013-01-25 04:22:00,
2013-01-24 22:27:00,23.7,21.7,30.41,WSW,242,0.0,4.0,92,0.00,,,0.00,meteohub,2013-01-25 04:27:00,
2013-01-24 22:32:00,23.7,21.9,30.41,West,259,1.0,4.0,93,0.00,,,0.00,meteohub,2013-01-25 04:32:00,
2013-01-24 22:37:00,23.5,21.7,30.41,West,269,2.0,4.0,93,0.00,,,0.00,meteohub,2013-01-25 04:37:00,
2013-01-24 22:42:00,23.5,21.6,30.41,West,259,2.0,3.0,92,0.00,,,0.00,meteohub,2013-01-25 04:42:00,
2013-01-24 22:47:00,23.5,21.6,30.42,WNW,284,3.0,3.0,92,0.00,,,0.00,meteohub,2013-01-25 04:47:00,
2013-01-24 22:52:00,23.7,21.9,30.42,WNW,285,2.0,4.0,93,0.00,,,0.00,meteohub,2013-01-25 04:52:00,
2013-01-24 22:57:00,23.7,21.7,30.42,WNW,300,2.0,4.0,92,0.00,,,0.00,meteohub,2013-01-25 04:57:00,
2013-01-24 23:01:00,23.7,21.7,30.41,WNW,295,0.0,4.0,92,0.00,,,0.00,meteohub,2013-01-25 05:01:00,
2013-01-24 23:02:00,23.9,21.9,30.41,NW,307,1.0,4.0,92,0.00,,,0.00,meteohub,2013-01-25 05:02:00,
2013-01-24 23:03:00,23.7,21.7,30.41,WNW,288,1.0,4.0,92,0.00,,,0.00,meteohub,2013-01-25 05:03:00,
2013-01-24 23:08:00,24.1,22.1,30.41,West,278,1.0,4.0,92,0.00,,,0.00,meteohub,2013-01-25 05:08:00,
2013-01-24 23:13:00,24.1,22.1,30.42,WNW,301,2.0,3.0,92,0.00,,,0.00,meteohub,2013-01-25 05:13:00,
2013-01-24 23:18:00,24.3,22.3,30.42,WNW,300,2.0,3.0,92,0.00,,,0.00,meteohub,2013-01-25 05:18:00,
2013-01-24 23:23:00,24.3,22.3,30.42,WNW,293,2.0,4.0,92,0.00,,,0.00,meteohub,2013-01-25 05:23:00,
2013-01-24 23:28:00,24.3,22.1,30.42,WNW,295,2.0,4.0,91,0.00,,,0.00,meteohub,2013-01-25 05:28:00,
2013-01-24 23:33:00,24.4,22.3,30.42,NNW,332,1.0,4.0,91,0.00,,,0.00,meteohub,2013-01-25 05:33:00,
2013-01-24 23:38:00,24.4,22.3,30.41,WNW,291,1.0,4.0,91,0.00,,,0.00,meteohub,2013-01-25 05:38:00,
2013-01-24 23:43:00,24.6,22.1,30.41,WNW,303,0.0,4.0,90,0.00,,,0.00,meteohub,2013-01-25 05:43:00,
2013-01-24 23:48:00,24.6,22.1,30.40,North,6,2.0,3.0,90,0.00,,,0.00,meteohub,2013-01-25 05:48:00,
2013-01-24 23:53:00,24.6,22.1,30.40,NNW,344,1.0,3.0,90,0.00,,,0.00,meteohub,2013-01-25 05:53:00,
2013-01-24 23:58:00,24.8,22.1,30.40,NNW,340,4.0,4.0,89,0.00,,,0.00,meteohub,2013-01-25 05:58:00,